createdAt,value
2017-08-15T00:00:02.757Z,1015.27
2017-08-15T00:05:03.256Z,1015.27
2017-08-15T00:10:02.834Z,1015.21
2017-08-15T00:15:03.583Z,1015.17
2017-08-15T00:20:03.020Z,1015.09
2017-08-15T00:25:03.700Z,1015.11
2017-08-15T00:30:03.408Z,1015.04
2017-08-15T00:35:02.854Z,1015.02
2017-08-15T00:40:03.465Z,1015.04
2017-08-15T00:45:02.958Z,1014.98
2017-08-15T00:50:03.570Z,1014.92
2017-08-15T00:55:03.156Z,1014.89
2017-08-15T01:00:03.731Z,1014.9
2017-08-15T01:05:03.264Z,1014.98
2017-08-15T01:10:02.870Z,1014.95
2017-08-15T01:15:03.479Z,1014.91
2017-08-15T01:20:02.946Z,1014.93
2017-08-15T01:25:03.470Z,1014.96
2017-08-15T01:30:03.012Z,1014.92
2017-08-15T01:35:03.553Z,1014.94
2017-08-15T01:40:02.990Z,1014.92
2017-08-15T01:45:03.422Z,1014.96
2017-08-15T01:50:03.005Z,1014.92
2017-08-15T01:55:02.705Z,1014.94
2017-08-15T02:00:03.225Z,1014.86
2017-08-15T02:05:03.642Z,1014.8
2017-08-15T02:10:03.257Z,1014.71
2017-08-15T02:15:02.715Z,1014.79
2017-08-15T02:20:03.193Z,1014.77
2017-08-15T02:25:03.642Z,1014.69
2017-08-15T02:30:03.340Z,1014.68
2017-08-15T02:35:02.806Z,1014.69
2017-08-15T02:40:03.273Z,1014.69
2017-08-15T02:45:02.919Z,1014.65
2017-08-15T02:50:03.480Z,1014.66
2017-08-15T02:55:03.017Z,1014.59
2017-08-15T03:00:03.584Z,1014.56
2017-08-15T03:05:03.014Z,1014.64
2017-08-15T03:10:02.700Z,1014.65
2017-08-15T03:15:03.767Z,1014.66
2017-08-15T03:20:03.265Z,1014.66
2017-08-15T03:25:02.632Z,1014.63
2017-08-15T03:30:03.369Z,1014.55
2017-08-15T03:35:02.829Z,1014.59
2017-08-15T03:40:03.501Z,1014.6
2017-08-15T03:45:02.931Z,1014.61
2017-08-15T03:50:03.378Z,1014.63
2017-08-15T03:55:02.894Z,1014.52
2017-08-15T04:00:03.475Z,1014.58
2017-08-15T04:05:03.067Z,1014.53
2017-08-15T04:10:03.345Z,1014.45
2017-08-15T04:15:03.405Z,1014.38
2017-08-15T04:20:03.441Z,1014.42
2017-08-15T04:25:03.485Z,1014.41
2017-08-15T04:30:03.548Z,1014.39
2017-08-15T04:35:03.357Z,1014.33
2017-08-15T04:40:03.517Z,1014.34
2017-08-15T04:45:03.537Z,1014.45
2017-08-15T04:50:03.669Z,1014.38
2017-08-15T04:55:03.773Z,1014.44
2017-08-15T05:00:03.772Z,1014.45
2017-08-15T05:05:03.802Z,1014.33
2017-08-15T05:10:02.906Z,1014.31
2017-08-15T05:15:03.016Z,1014.32
2017-08-15T05:20:03.199Z,1014.34
2017-08-15T05:25:03.254Z,1014.31
2017-08-15T05:30:03.465Z,1014.37
2017-08-15T05:35:03.402Z,1014.43
2017-08-15T05:40:02.849Z,1014.34
2017-08-15T05:45:03.281Z,1014.16
2017-08-15T05:50:02.749Z,1013.97
2017-08-15T05:55:03.221Z,1013.85
2017-08-15T06:00:02.649Z,1013.85
2017-08-15T06:05:03.062Z,1013.81
2017-08-15T06:10:02.703Z,1013.87
2017-08-15T06:15:03.106Z,1013.92
2017-08-15T06:20:02.632Z,1013.98
2017-08-15T06:25:03.178Z,1013.96
2017-08-15T06:30:02.690Z,1013.99
2017-08-15T06:35:03.276Z,1014.25
2017-08-15T06:40:02.741Z,1014.27
2017-08-15T06:45:03.151Z,1014.22
2017-08-15T06:50:02.689Z,1014.42
2017-08-15T06:55:03.233Z,1014.47
2017-08-15T07:00:03.611Z,1014.34
2017-08-15T07:05:03.174Z,1014.3
2017-08-15T07:10:02.642Z,1014.1
2017-08-15T07:15:03.105Z,1014.15
2017-08-15T07:20:02.712Z,1014.14
2017-08-15T07:25:03.220Z,1014.27
2017-08-15T07:30:03.667Z,1014.33
2017-08-15T07:35:03.260Z,1014.18
2017-08-15T07:40:02.728Z,1014.24
2017-08-15T07:45:03.262Z,1014.23
2017-08-15T07:50:02.662Z,1014.16
2017-08-15T07:55:03.040Z,1014.34
2017-08-15T08:00:03.526Z,1014.47
2017-08-15T08:05:02.974Z,1014.73
2017-08-15T08:10:03.567Z,1015.11
2017-08-15T08:15:03.138Z,1015.54
2017-08-15T08:20:03.622Z,1015.81
2017-08-15T08:25:03.102Z,1015.8
2017-08-15T08:30:03.510Z,1015.72
2017-08-15T08:35:02.909Z,1015.74
2017-08-15T08:40:03.556Z,1015.61
2017-08-15T08:45:03.112Z,1015.58
2017-08-15T08:50:03.607Z,1015.49
2017-08-15T08:55:03.042Z,1015.46
2017-08-15T09:00:03.616Z,1015.25
2017-08-15T09:05:03.055Z,1015.29
2017-08-15T09:10:03.605Z,1015.23
2017-08-15T09:15:03.210Z,1015.21
2017-08-15T09:20:02.669Z,1015.15
2017-08-15T09:25:03.147Z,1015.28
2017-08-15T09:30:02.713Z,1015.25
2017-08-15T09:35:03.301Z,1015.25
2017-08-15T09:40:02.934Z,1015.22
2017-08-15T09:45:03.528Z,1015.16
2017-08-15T09:50:03.076Z,1015.03
2017-08-15T09:55:03.649Z,1014.89
2017-08-15T10:00:03.151Z,1014.84
2017-08-15T10:05:03.529Z,1014.52
2017-08-15T10:10:03.071Z,1014.42
2017-08-15T10:15:02.651Z,1014.25
2017-08-15T10:20:03.151Z,1014.07
2017-08-15T10:25:03.546Z,1014.08
2017-08-15T10:30:03.050Z,1014.03
2017-08-15T10:35:03.495Z,1013.91
2017-08-15T10:40:02.965Z,1013.69
2017-08-15T10:45:03.396Z,1013.62
2017-08-15T10:50:02.857Z,1013.52
2017-08-15T10:55:03.291Z,1013.22
2017-08-15T11:00:02.754Z,1013.4
2017-08-15T11:05:03.331Z,1013.47
2017-08-15T11:10:02.788Z,1013.48
2017-08-15T11:15:03.306Z,1013.45
2017-08-15T11:20:02.791Z,1013.44
2017-08-15T11:25:03.243Z,1013.41
2017-08-15T11:30:03.646Z,1013.35
2017-08-15T11:35:03.148Z,1013.31
2017-08-15T11:40:03.631Z,1013.21
2017-08-15T11:45:03.132Z,1013.1
2017-08-15T11:50:02.694Z,1013.05
2017-08-15T11:55:03.293Z,1013.16
2017-08-15T12:00:02.726Z,1013.33
2017-08-15T12:05:03.274Z,1013.39
2017-08-15T12:10:03.192Z,1013.31
2017-08-15T12:15:03.618Z,1013.11
2017-08-15T12:20:03.270Z,1013.08
2017-08-15T12:25:02.807Z,1013.13
2017-08-15T12:30:03.387Z,1013.13
2017-08-15T12:35:02.866Z,1013.26
2017-08-15T12:40:03.464Z,1013.18
2017-08-15T12:45:03.000Z,1013.33
2017-08-15T12:50:03.590Z,1013.54
2017-08-15T12:55:03.241Z,1013.56
2017-08-15T13:00:02.672Z,1013.65
2017-08-15T13:05:03.220Z,1013.65
2017-08-15T13:10:02.768Z,1013.62
2017-08-15T13:15:03.228Z,1013.67
2017-08-15T13:20:02.715Z,1013.66
2017-08-15T13:25:03.136Z,1013.71
2017-08-15T13:30:02.775Z,1013.61
2017-08-15T13:35:03.321Z,1013.67
2017-08-15T13:40:02.872Z,1013.68
2017-08-15T13:45:03.441Z,1013.75
2017-08-15T13:50:02.981Z,1013.79
2017-08-15T13:55:03.504Z,1013.76
2017-08-15T14:00:02.973Z,1013.72
2017-08-15T14:05:03.372Z,1013.78
2017-08-15T14:10:02.826Z,1013.82
2017-08-15T14:15:03.390Z,1013.82
2017-08-15T14:20:02.873Z,1013.75
2017-08-15T14:25:03.417Z,1013.81
2017-08-15T14:30:02.945Z,1013.73
2017-08-15T14:35:03.549Z,1013.74
2017-08-15T14:40:03.145Z,1013.65
2017-08-15T14:45:03.642Z,1013.7
2017-08-15T14:50:03.035Z,1013.5
2017-08-15T14:55:03.599Z,1013.54
2017-08-15T15:00:03.038Z,1013.52
2017-08-15T15:05:03.528Z,1013.57
2017-08-15T15:10:03.135Z,1013.74
2017-08-15T15:15:03.612Z,1013.65
2017-08-15T15:20:03.056Z,1013.66
2017-08-15T15:25:03.510Z,1013.79
2017-08-15T15:30:03.146Z,1013.94
2017-08-15T15:40:03.110Z,1013.99
2017-08-15T15:45:03.557Z,1014.07
2017-08-15T15:50:03.085Z,1014.06
2017-08-15T15:55:02.634Z,1013.93
2017-08-15T16:00:03.111Z,1013.98
2017-08-15T16:05:03.630Z,1013.72
2017-08-15T16:10:03.124Z,1013.79
2017-08-15T16:15:02.734Z,1013.88
2017-08-15T16:20:03.358Z,1013.84
2017-08-15T16:25:02.800Z,1013.93
2017-08-15T16:30:03.261Z,1013.82
2017-08-15T16:35:02.694Z,1013.86
2017-08-15T16:40:03.222Z,1013.8
2017-08-15T16:45:02.700Z,1013.82
2017-08-15T16:50:03.332Z,1014.04
2017-08-15T16:55:02.870Z,1014.03
2017-08-15T17:00:03.328Z,1013.98
2017-08-15T17:05:02.881Z,1013.99
2017-08-15T17:10:03.475Z,1014.02
2017-08-15T17:15:02.887Z,1014.08
2017-08-15T17:20:03.527Z,1014.03
2017-08-15T17:25:02.946Z,1014.13
2017-08-15T17:30:03.535Z,1014.34
2017-08-15T17:35:03.074Z,1014.46
2017-08-15T17:40:03.618Z,1014.52
2017-08-15T17:45:03.035Z,1014.68
2017-08-15T17:50:03.502Z,1014.68
2017-08-15T17:55:02.975Z,1014.77
2017-08-15T18:05:03.167Z,1014.85
2017-08-15T18:10:02.674Z,1014.94
2017-08-15T18:15:03.249Z,1015.12
2017-08-15T18:20:02.727Z,1015.17
2017-08-15T18:25:03.158Z,1015.24
2017-08-15T18:30:02.734Z,1015.33
2017-08-15T18:35:03.196Z,1015.35
2017-08-15T18:40:02.787Z,1015.47
2017-08-15T18:45:03.198Z,1015.46
2017-08-15T18:50:02.750Z,1015.46
2017-08-15T18:55:03.283Z,1015.48
2017-08-15T19:00:02.832Z,1015.47
2017-08-15T19:05:03.401Z,1015.52
2017-08-15T19:10:03.025Z,1015.62
2017-08-15T19:15:03.519Z,1015.74
2017-08-15T19:20:03.008Z,1015.99
2017-08-15T19:25:03.415Z,1016.05
2017-08-15T19:30:02.985Z,1016.13
2017-08-15T19:35:03.531Z,1016.06
2017-08-15T19:40:03.146Z,1016.1
2017-08-15T19:45:03.596Z,1016.26
2017-08-15T19:50:03.206Z,1016.35
2017-08-15T19:55:03.640Z,1016.38
2017-08-15T20:00:03.203Z,1016.41
2017-08-15T20:05:02.800Z,1016.54
2017-08-15T20:10:03.357Z,1016.56
2017-08-15T20:15:02.898Z,1016.5
2017-08-15T20:20:03.449Z,1016.51
2017-08-15T20:25:02.965Z,1016.53
2017-08-15T20:30:03.506Z,1016.6
2017-08-15T20:35:02.940Z,1016.57
2017-08-15T20:40:03.572Z,1016.6
2017-08-15T20:45:03.034Z,1016.63
2017-08-15T20:50:03.627Z,1016.74
2017-08-15T20:55:03.173Z,1016.88
2017-08-15T21:00:02.796Z,1016.99
2017-08-15T21:05:03.255Z,1016.99
2017-08-15T21:10:02.862Z,1016.96
2017-08-15T21:15:03.464Z,1017.09
2017-08-15T21:20:03.008Z,1017.09
2017-08-15T21:25:03.611Z,1017.28
2017-08-15T21:30:03.022Z,1017.32
2017-08-15T21:35:03.486Z,1017.41
2017-08-15T21:40:03.007Z,1017.33
2017-08-15T21:45:03.414Z,1017.39
2017-08-15T21:50:02.820Z,1017.56
2017-08-15T21:55:03.380Z,1017.62
2017-08-15T22:00:02.930Z,1017.65
2017-08-15T22:05:03.477Z,1017.77
2017-08-15T22:10:03.101Z,1017.82
2017-08-15T22:15:02.622Z,1017.85
2017-08-15T22:20:03.248Z,1017.89
2017-08-15T22:25:03.612Z,1017.93
2017-08-15T22:30:03.140Z,1017.91
2017-08-15T22:35:03.606Z,1017.96
2017-08-15T22:40:03.196Z,1017.97
2017-08-15T22:45:02.724Z,1017.97
2017-08-15T22:50:03.394Z,1017.99
2017-08-15T22:55:02.891Z,1018.14
2017-08-15T23:00:03.528Z,1018.16
2017-08-15T23:05:02.822Z,1018.26
2017-08-15T23:10:03.320Z,1018.27
2017-08-15T23:15:02.768Z,1018.3
2017-08-15T23:20:03.310Z,1018.32
2017-08-15T23:25:02.849Z,1018.32
2017-08-15T23:30:03.344Z,1018.35
2017-08-15T23:35:02.967Z,1018.38
2017-08-15T23:40:03.435Z,1018.48
2017-08-15T23:45:02.836Z,1018.54
2017-08-15T23:50:03.405Z,1018.61
2017-08-15T23:55:02.935Z,1018.54
